Time;durP1;ratioP1;P1;durP2;ratioP2;P2;SDS_P1;SDS_P2;PMS_P1;PMS_P2;Temp;Humidity;BMP_temperature;BMP_pressure;BME280_temperature;BME280_humidity;BME280_pressure;Samples;Min_cycle;Max_cycle;Signal;HPM_P1;HPM_P2
2022/07/23 00:01:42;;;;;;;5.50;4.15;;;22.40;62.10;;;;;;4984267;28;20077;-51
2022/07/23 00:04:09;;;;;;;5.05;3.72;;;22.40;61.90;;;;;;4981881;28;20053;-51
2022/07/23 00:06:38;;;;;;;4.85;3.80;;;22.40;62.00;;;;;;4990233;28;20050;-51
2022/07/23 00:09:06;;;;;;;4.65;3.75;;;22.30;62.20;;;;;;4986451;28;20077;-50
2022/07/23 00:11:35;;;;;;;5.95;3.75;;;22.30;62.40;;;;;;4982837;28;20061;-51
2022/07/23 00:14:03;;;;;;;4.63;3.75;;;22.20;62.40;;;;;;4990374;28;20046;-53
2022/07/23 00:16:30;;;;;;;4.60;3.83;;;22.20;62.60;;;;;;4987075;28;20105;-51
2022/07/23 00:19:01;;;;;;;3.90;3.50;;;22.10;62.70;;;;;;4972063;28;20038;-53
2022/07/23 00:21:30;;;;;;;4.05;3.63;;;22.00;62.50;;;;;;4993278;28;20054;-53
2022/07/23 00:23:57;;;;;;;4.63;3.17;;;22.00;62.40;;;;;;4987044;28;20479;-50
2022/07/23 00:26:27;;;;;;;4.00;3.40;;;21.90;62.40;;;;;;4988494;28;20046;-53
2022/07/23 00:28:54;;;;;;;4.35;3.60;;;21.80;62.30;;;;;;4976162;28;20047;-53
2022/07/23 00:31:23;;;;;;;5.03;4.38;;;21.80;62.50;;;;;;4988075;28;20038;-53
2022/07/23 00:33:50;;;;;;;5.10;3.50;;;21.80;62.40;;;;;;4990190;28;20045;-49
2022/07/23 00:36:18;;;;;;;4.38;3.45;;;21.70;62.20;;;;;;4981773;28;20138;-52
2022/07/23 00:38:50;;;;;;;4.30;3.53;;;21.70;62.40;;;;;;4978365;28;20066;-53
2022/07/23 00:41:19;;;;;;;3.13;2.90;;;21.60;62.30;;;;;;4985144;28;20057;-52
2022/07/23 00:43:46;;;;;;;3.28;2.97;;;21.60;62.10;;;;;;4989290;28;20046;-52
2022/07/23 00:46:18;;;;;;;3.92;3.13;;;21.50;62.10;;;;;;4987623;28;20189;-52
2022/07/23 00:48:48;;;;;;;3.67;3.13;;;21.40;61.90;;;;;;4979614;28;20054;-52
2022/07/23 00:51:19;;;;;;;3.70;3.38;;;21.40;61.80;;;;;;4977828;28;20077;-53
2022/07/23 00:53:46;;;;;;;4.57;4.03;;;21.30;62.10;;;;;;4985777;28;20046;-50
2022/07/23 00:56:18;;;;;;;4.10;3.17;;;21.30;62.10;;;;;;4987623;28;20050;-50
2022/07/23 00:58:47;;;;;;;3.63;3.33;;;21.20;61.90;;;;;;4974438;28;20063;-52
2022/07/23 01:01:18;;;;;;;3.65;3.35;;;21.20;62.00;;;;;;4987995;28;20510;-52
2022/07/23 01:03:48;;;;;;;4.00;3.40;;;21.20;62.00;;;;;;4989926;28;20074;-53
2022/07/23 01:06:22;;;;;;;3.85;3.53;;;21.10;61.90;;;;;;4978967;28;20077;-50
2022/07/23 01:08:53;;;;;;;3.55;3.25;;;21.00;61.90;;;;;;4993017;28;20422;-50
2022/07/23 01:11:31;;;;;;;5.40;2.83;;;21.00;62.00;;;;;;4977073;28;20127;-51
2022/07/23 01:13:58;;;;;;;3.47;3.03;;;20.90;62.00;;;;;;4991393;28;20038;-50
2022/07/23 01:16:24;;;;;;;3.65;3.15;;;20.90;62.00;;;;;;5000324;28;20134;-52
2022/07/23 01:19:01;;;;;;;4.10;3.58;;;20.90;62.10;;;;;;4982870;28;20495;-50
2022/07/23 01:21:30;;;;;;;3.65;3.35;;;20.80;62.10;;;;;;4989755;28;20512;-53
2022/07/23 01:24:00;;;;;;;8.27;4.10;;;20.80;62.20;;;;;;4986939;28;20046;-52
2022/07/23 01:26:32;;;;;;;4.32;3.33;;;20.70;62.00;;;;;;4974093;28;20034;-49
2022/07/23 01:28:59;;;;;;;4.07;2.97;;;20.70;62.10;;;;;;4986784;28;20034;-52
2022/07/23 01:31:29;;;;;;;3.80;3.28;;;20.70;62.00;;;;;;4989667;28;20130;-53
2022/07/23 01:34:04;;;;;;;3.67;3.38;;;20.60;62.10;;;;;;5004158;28;20055;-51
2022/07/23 01:36:36;;;;;;;3.33;2.90;;;20.60;62.10;;;;;;4994366;28;20042;-52
2022/07/23 01:39:07;;;;;;;4.68;3.80;;;20.50;62.00;;;;;;5005658;28;20146;-52
2022/07/23 01:41:34;;;;;;;3.67;3.38;;;20.50;62.10;;;;;;5006036;28;20100;-52
2022/07/23 01:44:05;;;;;;;4.07;3.28;;;20.50;62.30;;;;;;4986987;28;20121;-53
2022/07/23 01:46:32;;;;;;;3.60;3.30;;;20.40;62.40;;;;;;4976505;28;20043;-50
2022/07/23 01:49:02;;;;;;;3.85;3.53;;;20.40;62.60;;;;;;5005870;28;20503;-53
2022/07/23 01:52:02;;;;;;;4.00;3.13;;;20.40;62.60;;;;;;4971642;28;20092;-49
2022/07/23 01:54:35;;;;;;;4.28;3.45;;;20.30;62.60;;;;;;4977356;28;20514;-49
2022/07/23 01:57:06;;;;;;;4.40;3.42;;;20.30;62.80;;;;;;4987372;28;20647;-53
2022/07/23 01:59:42;;;;;;;3.90;3.35;;;20.30;63.10;;;;;;5005862;28;20047;-53
2022/07/23 02:02:14;;;;;;;3.92;3.33;;;20.30;63.00;;;;;;4976338;28;20102;-53
2022/07/23 02:04:43;;;;;;;3.33;2.90;;;20.20;63.10;;;;;;4983561;28;20034;-53
2022/07/23 02:07:13;;;;;;;3.58;2.92;;;20.20;63.10;;;;;;4990356;28;20061;-52
2022/07/23 02:09:39;;;;;;;3.50;3.00;;;20.20;63.10;;;;;;4990589;28;20042;-53
2022/07/23 02:12:06;;;;;;;4.55;3.20;;;20.20;63.10;;;;;;4982641;28;20538;-52
2022/07/23 02:14:35;;;;;;;4.05;3.35;;;20.20;63.30;;;;;;4971628;28;20042;-51
2022/07/23 02:17:05;;;;;;;3.05;2.85;;;20.20;63.50;;;;;;5005143;28;20061;-52
2022/07/23 02:19:31;;;;;;;3.65;3.33;;;20.20;63.20;;;;;;4987399;28;20089;-51
2022/07/23 02:21:58;;;;;;;4.35;2.92;;;20.20;63.80;;;;;;4970638;28;20047;-52
2022/07/23 02:24:27;;;;;;;4.22;3.83;;;20.20;63.00;;;;;;5005819;28;20502;-52
2022/07/23 02:26:55;;;;;;;5.05;3.28;;;20.10;62.90;;;;;;4989492;28;20129;-51
2022/07/23 02:29:23;;;;;;;3.65;3.33;;;20.10;62.80;;;;;;4999832;28;20775;-49
2022/07/23 02:31:53;;;;;;;4.93;4.53;;;20.10;63.20;;;;;;4986769;28;20043;-53
2022/07/23 02:34:25;;;;;;;3.50;3.20;;;20.10;62.90;;;;;;4986165;28;20077;-53
2022/07/23 02:36:55;;;;;;;6.70;3.70;;;20.10;63.20;;;;;;4992826;28;20122;-52
2022/07/23 02:39:23;;;;;;;4.15;3.65;;;20.00;63.20;;;;;;4980795;28;20042;-52
2022/07/23 02:41:49;;;;;;;6.28;3.72;;;20.00;62.90;;;;;;4992182;28;20054;-49
2022/07/23 02:44:20;;;;;;;4.18;3.35;;;19.90;62.90;;;;;;4970232;28;20058;-52
2022/07/23 02:46:53;;;;;;;3.15;2.90;;;19.90;62.90;;;;;;4970427;28;20149;-53
2022/07/23 02:49:20;;;;;;;4.15;3.22;;;19.90;62.80;;;;;;4978628;28;20447;-50
2022/07/23 02:51:51;;;;;;;4.25;3.22;;;19.90;62.70;;;;;;4988584;28;20450;-53
2022/07/23 02:54:18;;;;;;;4.68;2.97;;;19.80;62.60;;;;;;5008369;28;20141;-53
2022/07/23 02:56:47;;;;;;;3.03;2.78;;;19.80;62.50;;;;;;4992428;28;20104;-51
2022/07/23 02:59:16;;;;;;;5.20;3.00;;;19.70;62.70;;;;;;4977871;28;20053;-51
2022/07/23 03:01:43;;;;;;;5.15;2.83;;;19.70;62.50;;;;;;5066334;22;20041;-49
2022/07/23 03:04:12;;;;;;;3.17;2.72;;;19.60;62.50;;;;;;5016202;28;20583;-52
2022/07/23 03:06:41;;;;;;;4.47;3.22;;;19.60;62.50;;;;;;5014943;28;20038;-51
2022/07/23 03:09:10;;;;;;;3.20;2.78;;;19.60;62.40;;;;;;5022215;28;20107;-49
2022/07/23 03:11:38;;;;;;;3.83;3.22;;;19.50;62.40;;;;;;5042665;28;20044;-49
2022/07/23 03:14:07;;;;;;;3.92;2.88;;;19.50;62.40;;;;;;5028968;28;20527;-49
2022/07/23 03:16:35;;;;;;;3.45;3.15;;;19.50;62.30;;;;;;5014956;28;20049;-53
2022/07/23 03:19:05;;;;;;;4.43;2.88;;;19.40;62.30;;;;;;5019072;28;20057;-50
2022/07/23 03:21:33;;;;;;;4.38;2.95;;;19.40;62.30;;;;;;5042182;28;20033;-53
2022/07/23 03:24:01;;;;;;;4.82;3.08;;;19.30;62.30;;;;;;5014798;28;20167;-49
2022/07/23 03:26:31;;;;;;;3.00;2.70;;;19.30;62.40;;;;;;5009017;28;20041;-49
2022/07/23 03:28:57;;;;;;;3.22;2.63;;;19.30;62.30;;;;;;5035078;28;20041;-50
2022/07/23 03:31:28;;;;;;;5.35;3.45;;;19.20;62.30;;;;;;5026648;28;20057;-49
2022/07/23 03:33:58;;;;;;;5.60;3.20;;;19.20;62.30;;;;;;5030292;28;20045;-51
2022/07/23 03:36:28;;;;;;;3.53;2.72;;;19.10;62.20;;;;;;5026131;28;20472;-56
2022/07/23 03:38:58;;;;;;;4.03;2.78;;;19.20;62.50;;;;;;5025904;28;20040;-49
2022/07/23 03:41:30;;;;;;;3.10;2.77;;;19.10;62.90;;;;;;5034900;28;20045;-50
2022/07/23 03:43:57;;;;;;;3.42;2.75;;;19.10;62.80;;;;;;5011265;28;20046;-52
2022/07/23 03:46:25;;;;;;;2.97;2.70;;;19.00;62.60;;;;;;5016323;28;20041;-52
2022/07/23 03:48:52;;;;;;;5.20;2.80;;;19.00;62.60;;;;;;5026073;28;20040;-49
2022/07/23 03:51:25;;;;;;;4.20;2.72;;;18.90;62.70;;;;;;5035670;28;20060;-53
2022/07/23 03:53:55;;;;;;;3.65;3.25;;;18.90;62.60;;;;;;5014622;28;20041;-49
2022/07/23 03:56:26;;;;;;;3.45;3.13;;;18.90;62.70;;;;;;5012791;28;20615;-49
2022/07/23 03:58:53;;;;;;;4.40;2.80;;;18.90;62.80;;;;;;5018294;28;20136;-49
2022/07/23 04:01:19;;;;;;;3.85;3.15;;;18.90;62.70;;;;;;5011643;28;20041;-49
2022/07/23 04:03:49;;;;;;;4.53;2.85;;;18.80;62.80;;;;;;5010965;28;20046;-52
2022/07/23 04:06:18;;;;;;;5.38;2.90;;;18.80;63.10;;;;;;5018576;28;20041;-53
2022/07/23 04:08:46;;;;;;;4.10;2.95;;;18.80;63.00;;;;;;5026031;28;20037;-53
2022/07/23 04:11:13;;;;;;;2.92;2.60;;;18.80;63.20;;;;;;5034036;28;20041;-50
2022/07/23 04:13:40;;;;;;;5.82;2.65;;;18.80;63.40;;;;;;5023400;28;20053;-53
2022/07/23 04:16:07;;;;;;;5.90;2.72;;;18.70;63.30;;;;;;5015522;28;20092;-52
2022/07/23 04:18:37;;;;;;;3.33;2.45;;;18.80;63.20;;;;;;5025704;28;20041;-53
2022/07/23 04:21:15;;;;;;;3.60;2.70;;;18.70;63.30;;;;;;5033768;28;20052;-52
2022/07/23 04:23:46;;;;;;;5.30;3.20;;;18.70;63.30;;;;;;5017677;28;20049;-50
2022/07/23 04:26:15;;;;;;;5.68;3.47;;;18.70;63.40;;;;;;5026553;28;20049;-50
2022/07/23 04:28:45;;;;;;;4.07;2.67;;;18.70;63.50;;;;;;5029024;28;20047;-50
2022/07/23 04:31:15;;;;;;;7.32;2.90;;;18.70;63.60;;;;;;5023713;28;20133;-53
2022/07/23 04:33:44;;;;;;;2.95;2.55;;;18.70;63.60;;;;;;5012229;28;20064;-52
2022/07/23 04:36:13;;;;;;;4.95;2.80;;;18.70;63.50;;;;;;5014509;28;20053;-49
2022/07/23 04:38:40;;;;;;;4.13;2.83;;;18.70;63.60;;;;;;5013397;28;20037;-49
2022/07/23 04:41:07;;;;;;;7.82;3.80;;;18.70;63.90;;;;;;5028560;28;20037;-51
2022/07/23 04:43:37;;;;;;;5.47;3.38;;;18.70;64.10;;;;;;5014501;28;20149;-54
2022/07/23 04:46:04;;;;;;;9.32;3.58;;;18.70;64.80;;;;;;5030102;28;20042;-50
2022/07/23 04:48:42;;;;;;;3.65;3.22;;;18.70;64.50;;;;;;5013408;28;20087;-49
2022/07/23 04:51:09;;;;;;;4.53;3.50;;;18.70;64.60;;;;;;5009464;28;20041;-52
2022/07/23 04:53:38;;;;;;;4.95;3.20;;;18.80;64.80;;;;;;5010018;28;20145;-50
2022/07/23 04:56:08;;;;;;;7.40;3.08;;;18.80;64.90;;;;;;5013122;28;20053;-52
2022/07/23 04:58:35;;;;;;;4.15;3.38;;;18.80;65.10;;;;;;5013101;28;20053;-49
2022/07/23 05:01:02;;;;;;;4.93;4.10;;;18.80;65.40;;;;;;5012728;28;20068;-56
2022/07/23 05:03:32;;;;;;;8.35;4.20;;;18.90;65.80;;;;;;5014210;28;20033;-49
2022/07/23 05:06:02;;;;;;;5.72;4.30;;;18.90;66.50;;;;;;5014388;28;20029;-53
2022/07/23 05:08:31;;;;;;;8.23;5.30;;;19.00;66.40;;;;;;5009219;28;20424;-50
2022/07/23 05:11:01;;;;;;;7.88;5.25;;;19.00;66.30;;;;;;5014122;28;20069;-50
2022/07/23 05:13:28;;;;;;;9.32;5.07;;;19.00;66.40;;;;;;5021656;28;20769;-53
2022/07/23 05:15:55;;;;;;;8.32;6.20;;;19.10;66.50;;;;;;5012767;28;20540;-49
2022/07/23 05:18:23;;;;;;;6.68;5.32;;;19.10;66.60;;;;;;5021145;28;20045;-53
2022/07/23 05:20:53;;;;;;;8.77;5.20;;;19.20;66.80;;;;;;5017472;28;20045;-49
2022/07/23 05:23:22;;;;;;;5.85;4.93;;;19.20;66.90;;;;;;5014110;28;20041;-52
2022/07/23 05:25:49;;;;;;;5.25;4.75;;;19.20;66.80;;;;;;5013588;28;20509;-49
2022/07/23 05:28:19;;;;;;;6.00;5.35;;;19.30;67.00;;;;;;5013277;28;20172;-51
2022/07/23 05:30:51;;;;;;;6.25;5.63;;;19.40;66.90;;;;;;5015718;28;20102;-49
2022/07/23 05:33:24;;;;;;;;;;;19.40;66.80;;;;;;5021746;28;20041;-45
2022/07/23 05:35:54;;;;;;;6.43;4.90;;;19.50;66.60;;;;;;5012859;28;20312;-44
2022/07/23 05:38:29;;;;;;;5.45;4.88;;;19.50;66.20;;;;;;5014492;28;20075;-44
2022/07/23 05:41:00;;;;;;;7.85;6.13;;;19.60;66.30;;;;;;5025500;28;20048;-48
2022/07/23 05:43:29;;;;;;;7.05;5.85;;;19.60;66.50;;;;;;5026210;28;20421;-47
2022/07/23 05:46:00;;;;;;;6.80;5.70;;;19.60;66.70;;;;;;5032631;28;20087;-45
2022/07/23 05:48:34;;;;;;;8.52;5.97;;;19.70;66.90;;;;;;5014744;28;20075;-45
2022/07/23 05:51:06;;;;;;;7.55;5.45;;;19.70;66.50;;;;;;5035645;28;20053;-47
2022/07/23 05:53:34;;;;;;;5.80;5.28;;;19.70;66.30;;;;;;5024770;28;20420;-47
2022/07/23 05:56:08;;;;;;;5.85;5.03;;;19.80;66.40;;;;;;5010306;28;20065;-48
2022/07/23 05:58:38;;;;;;;9.52;5.65;;;19.80;66.20;;;;;;5014265;28;20069;-46
2022/07/23 06:01:09;;;;;;;8.30;5.60;;;19.80;66.20;;;;;;5020590;28;20555;-47
2022/07/23 06:03:45;;;;;;;7.97;5.97;;;19.90;66.40;;;;;;5033890;28;20052;-46
2022/07/23 06:06:15;;;;;;;6.87;5.97;;;19.90;66.20;;;;;;5027436;28;20565;-47
2022/07/23 06:08:42;;;;;;;7.90;6.18;;;20.00;66.00;;;;;;5026628;28;20291;-47
2022/07/23 06:11:13;;;;;;;6.32;5.72;;;20.00;65.90;;;;;;5026140;28;20063;-47
2022/07/23 06:13:40;;;;;;;8.45;5.53;;;20.00;66.10;;;;;;5052313;28;20413;-45
2022/07/23 06:16:06;;;;;;;9.90;6.78;;;20.10;66.30;;;;;;5020767;28;20053;-47
2022/07/23 06:18:33;;;;;;;7.15;5.97;;;20.10;66.40;;;;;;5043929;28;20044;-45
2022/07/23 06:21:00;;;;;;;7.85;6.90;;;20.10;66.30;;;;;;5025517;28;20045;-46
2022/07/23 06:23:27;;;;;;;8.07;6.47;;;20.10;66.50;;;;;;5025547;28;20165;-47
2022/07/23 06:25:54;;;;;;;8.25;6.03;;;20.10;66.60;;;;;;5030503;28;20037;-48
2022/07/23 06:28:22;;;;;;;8.10;7.13;;;20.10;66.70;;;;;;5026317;28;20049;-47
2022/07/23 06:30:52;;;;;;;7.07;6.38;;;20.10;66.80;;;;;;5033841;28;20037;-46
2022/07/23 06:33:23;;;;;;;7.82;6.72;;;20.10;66.90;;;;;;5025579;28;20037;-46
2022/07/23 06:35:50;;;;;;;10.65;6.45;;;20.10;67.00;;;;;;5035616;28;20083;-47
2022/07/23 06:38:16;;;;;;;7.57;6.88;;;20.20;67.20;;;;;;5024627;28;20052;-48
2022/07/23 06:40:45;;;;;;;8.13;6.28;;;20.10;67.50;;;;;;5047530;28;20041;-48
2022/07/23 06:43:12;;;;;;;8.55;7.40;;;20.20;67.50;;;;;;5036944;28;20050;-47
2022/07/23 06:45:45;;;;;;;10.07;7.30;;;20.20;67.60;;;;;;5027588;28;20095;-46
2022/07/23 06:48:15;;;;;;;11.82;6.90;;;20.20;67.70;;;;;;5016937;28;20483;-50
2022/07/23 06:50:42;;;;;;;8.10;7.05;;;20.30;67.50;;;;;;5012224;28;20042;-47
2022/07/23 06:53:13;;;;;;;7.90;7.20;;;20.40;67.50;;;;;;5036793;28;20045;-48
2022/07/23 06:55:43;;;;;;;12.18;8.60;;;20.40;67.20;;;;;;5015414;28;20103;-49
2022/07/23 06:58:11;;;;;;;8.00;7.22;;;20.40;66.90;;;;;;5023115;28;20038;-46
2022/07/23 07:00:40;;;;;;;9.02;7.70;;;20.40;67.00;;;;;;5025702;28;20045;-47
2022/07/23 07:03:09;;;;;;;9.77;8.13;;;20.40;67.10;;;;;;5037244;28;20041;-48
2022/07/23 07:05:36;;;;;;;10.27;8.35;;;20.50;67.30;;;;;;5039956;28;20068;-48
2022/07/23 07:08:05;;;;;;;8.68;7.70;;;20.50;67.10;;;;;;5038289;28;20498;-46
2022/07/23 07:10:36;;;;;;;10.13;8.15;;;20.50;67.10;;;;;;5034388;28;20037;-49
2022/07/23 07:13:06;;;;;;;10.45;8.55;;;20.60;67.20;;;;;;5032488;28;20095;-50
2022/07/23 07:15:39;;;;;;;13.05;9.93;;;20.60;66.90;;;;;;5033132;28;20038;-48
2022/07/23 07:18:06;;;;;;;11.32;8.77;;;20.70;66.70;;;;;;5051331;28;20052;-47
2022/07/23 07:20:33;;;;;;;10.05;8.70;;;20.70;66.60;;;;;;5044643;28;20073;-46
2022/07/23 07:23:00;;;;;;;11.30;8.07;;;20.80;66.80;;;;;;5034502;28;20038;-48
2022/07/23 07:25:27;;;;;;;11.13;7.93;;;20.80;66.50;;;;;;5042676;28;20064;-47
2022/07/23 07:27:54;;;;;;;9.13;7.70;;;20.80;66.50;;;;;;5052860;28;20464;-47
2022/07/23 07:30:20;;;;;;;13.23;9.23;;;20.90;66.60;;;;;;5026615;28;20033;-46
2022/07/23 07:32:47;;;;;;;10.75;8.88;;;20.90;66.60;;;;;;5021115;28;20498;-47
2022/07/23 07:35:25;;;;;;;10.75;8.25;;;21.00;66.10;;;;;;5010694;28;20061;-49
2022/07/23 07:37:51;;;;;;;10.95;8.27;;;21.00;66.00;;;;;;5025834;28;20119;-46
2022/07/23 07:40:18;;;;;;;12.57;8.43;;;21.10;66.30;;;;;;5029202;28;20049;-48
2022/07/23 07:42:47;;;;;;;11.90;8.23;;;21.10;66.10;;;;;;5023924;28;20063;-47
2022/07/23 07:45:15;;;;;;;9.15;8.07;;;21.10;65.70;;;;;;5032937;28;20680;-46
2022/07/23 07:47:42;;;;;;;12.77;8.23;;;21.20;65.70;;;;;;5031703;28;20041;-48
2022/07/23 07:50:09;;;;;;;11.18;7.82;;;21.30;65.30;;;;;;5029877;28;20099;-46
2022/07/23 07:52:39;;;;;;;10.27;7.60;;;21.30;65.20;;;;;;5034722;28;20033;-50
2022/07/23 07:55:11;;;;;;;8.25;6.78;;;21.30;64.70;;;;;;5032306;28;20053;-47
2022/07/23 07:57:38;;;;;;;;;;;21.40;65.00;;;;;;5031000;28;20052;-49
2022/07/23 08:00:07;;;;;;;10.30;6.85;;;21.50;65.50;;;;;;5030505;28;19928;-49
2022/07/23 08:02:41;;;;;;;8.55;7.53;;;21.50;64.60;;;;;;5013276;28;20056;-51
2022/07/23 08:05:09;;;;;;;10.00;6.10;;;21.60;64.80;;;;;;5029429;28;20668;-47
2022/07/23 08:07:37;;;;;;;8.85;6.10;;;21.60;63.80;;;;;;5028867;28;20087;-47
2022/07/23 08:10:04;;;;;;;10.98;7.32;;;21.60;63.50;;;;;;5035385;28;20072;-47
2022/07/23 08:12:47;;;;;;;8.85;6.47;;;21.60;63.10;;;;;;5028077;28;21429;-48
2022/07/23 08:15:16;;;;;;;9.45;6.70;;;21.70;63.40;;;;;;5028559;28;20050;-46
2022/07/23 08:17:44;;;;;;;7.53;6.68;;;21.70;63.30;;;;;;5030630;28;20069;-46
2022/07/23 08:20:13;;;;;;;10.00;6.68;;;21.80;63.70;;;;;;5029822;28;20128;-46
2022/07/23 08:22:50;;;;;;;7.35;6.30;;;21.80;63.30;;;;;;5026951;28;20152;-49
2022/07/23 08:25:22;;;;;;;6.72;6.13;;;21.90;63.60;;;;;;5026948;28;20099;-48
2022/07/23 08:27:49;;;;;;;6.15;5.53;;;21.90;62.50;;;;;;5029851;28;20037;-47
2022/07/23 08:30:20;;;;;;;5.35;4.85;;;21.90;62.90;;;;;;5029462;28;20091;-48
2022/07/23 08:32:52;;;;;;;6.30;5.20;;;22.00;62.70;;;;;;5026822;28;20112;-47
2022/07/23 08:35:34;;;;;;;7.45;4.90;;;22.00;62.80;;;;;;5026824;28;20096;-48
2022/07/23 08:38:03;;;;;;;6.10;4.85;;;22.00;61.50;;;;;;5030538;28;20057;-48
2022/07/23 08:40:32;;;;;;;6.60;4.50;;;22.10;61.10;;;;;;5027758;28;20080;-46
2022/07/23 08:43:01;;;;;;;5.18;4.57;;;22.10;60.70;;;;;;5029858;28;20402;-51
2022/07/23 08:45:28;;;;;;;6.57;4.88;;;22.10;60.50;;;;;;5023513;28;20045;-47
2022/07/23 08:47:56;;;;;;;5.57;4.82;;;22.10;60.50;;;;;;5028301;28;20030;-50
2022/07/23 08:50:27;;;;;;;5.30;4.05;;;22.20;60.40;;;;;;5040912;28;20129;-49
2022/07/23 08:52:54;;;;;;;5.97;4.57;;;22.30;60.10;;;;;;5029393;28;20052;-49
2022/07/23 08:55:22;;;;;;;5.80;4.03;;;22.30;60.30;;;;;;5026525;28;20374;-48
2022/07/23 08:57:51;;;;;;;4.97;4.45;;;22.30;60.40;;;;;;5034861;28;20501;-47
2022/07/23 09:00:19;;;;;;;6.95;4.80;;;22.30;59.90;;;;;;5045747;28;20107;-51
2022/07/23 09:02:47;;;;;;;6.10;4.80;;;22.30;59.40;;;;;;5026096;28;20497;-47
2022/07/23 09:05:15;;;;;;;4.75;4.30;;;22.40;59.40;;;;;;5028618;28;20095;-47
2022/07/23 09:08:39;;;;;;;3.75;3.45;;;22.40;58.70;;;;;;5040824;28;20080;-50
2022/07/23 09:11:09;;;;;;;4.53;4.07;;;22.50;59.70;;;;;;4929142;29;20048;-47
2022/07/23 09:13:46;;;;;;;4.72;3.80;;;22.60;58.90;;;;;;4926247;29;20092;-47
2022/07/23 09:16:16;;;;;;;4.40;3.42;;;22.60;58.40;;;;;;4990829;28;20107;-46
2022/07/23 09:18:44;;;;;;;4.57;4.03;;;22.60;58.80;;;;;;5028958;28;20033;-47
2022/07/23 09:21:16;;;;;;;4.78;4.25;;;22.70;58.90;;;;;;5043093;23;20042;-48
2022/07/23 09:23:47;;;;;;;4.60;4.15;;;22.70;58.50;;;;;;4998998;28;20396;-47
2022/07/23 09:26:23;;;;;;;4.20;3.70;;;22.70;58.10;;;;;;4989136;28;20057;-51
2022/07/23 09:28:53;;;;;;;9.07;4.28;;;22.80;57.50;;;;;;4993701;28;20034;-47
2022/07/23 09:31:21;;;;;;;4.65;3.95;;;22.80;58.40;;;;;;4996780;28;20041;-49
2022/07/23 09:33:48;;;;;;;4.50;3.95;;;22.90;57.90;;;;;;5027803;28;20033;-51
2022/07/23 09:36:14;;;;;;;5.25;3.28;;;23.00;58.30;;;;;;5010740;28;20673;-50
2022/07/23 09:38:50;;;;;;;6.28;3.75;;;23.00;57.90;;;;;;5012916;28;20101;-48
2022/07/23 09:41:16;;;;;;;3.60;3.25;;;23.10;57.40;;;;;;5013973;28;20034;-49
2022/07/23 09:43:44;;;;;;;4.18;3.10;;;23.10;57.10;;;;;;5021726;28;20040;-46
2022/07/23 09:46:27;;;;;;;4.65;2.90;;;23.20;57.30;;;;;;5023516;28;20042;-50
2022/07/23 09:48:58;;;;;;;4.78;3.60;;;23.20;56.50;;;;;;5013665;28;20454;-51
2022/07/23 09:53:52;;;;;;;3.38;3.08;;;23.40;56.00;;;;;;5031384;28;20077;-48
2022/07/23 09:56:20;;;;;;;6.03;3.38;;;23.40;56.50;;;;;;5001505;28;20097;-48
2022/07/23 10:01:56;;;;;;;4.53;3.15;;;23.50;55.70;;;;;;4961331;28;20058;-50
2022/07/23 10:04:24;;;;;;;3.60;2.35;;;23.60;56.20;;;;;;5011057;28;20513;-48
2022/07/23 10:07:11;;;;;;;3.05;2.20;;;23.60;55.30;;;;;;5022012;28;20402;-51
2022/07/23 10:09:58;;;;;;;3.28;2.60;;;23.60;54.30;;;;;;5011956;28;20056;-48
2022/07/23 10:15:27;;;;;;;3.15;2.65;;;23.70;54.20;;;;;;5011444;28;20399;-48
2022/07/23 10:17:54;;;;;;;3.00;2.78;;;23.80;53.60;;;;;;5009475;28;20042;-49
2022/07/23 10:20:22;;;;;;;2.75;2.53;;;23.80;53.20;;;;;;5018266;28;20042;-48
2022/07/23 10:22:59;;;;;;;3.72;2.40;;;23.80;53.30;;;;;;5017733;28;20103;-48
2022/07/23 10:25:40;;;;;;;2.47;2.20;;;23.90;52.60;;;;;;5005799;28;20041;-50
2022/07/23 10:28:12;;;;;;;2.05;1.92;;;24.00;52.10;;;;;;5014410;28;20102;-51
2022/07/23 10:30:49;;;;;;;2.47;2.25;;;24.00;53.10;;;;;;5012818;28;20049;-52
2022/07/23 10:33:53;;;;;;;2.25;2.13;;;24.10;52.50;;;;;;5023177;28;20037;-51
2022/07/23 10:36:42;;;;;;;3.03;2.80;;;24.10;51.30;;;;;;5010340;28;20053;-52
2022/07/23 10:39:17;;;;;;;3.25;2.88;;;24.20;51.50;;;;;;5019189;28;20121;-48
2022/07/23 10:41:44;;;;;;;3.38;2.42;;;24.20;51.80;;;;;;5012533;28;20038;-52
2022/07/23 10:44:12;;;;;;;3.53;2.50;;;24.30;51.80;;;;;;5032303;28;20543;-52
2022/07/23 10:49:50;;;;;;;4.05;2.20;;;24.40;51.70;;;;;;5001104;28;20248;-52
2022/07/23 10:52:19;;;;;;;3.03;2.08;;;24.50;51.70;;;;;;5009840;28;20053;-51
2022/07/23 10:55:13;;;;;;;3.17;2.00;;;24.50;50.80;;;;;;5023320;28;20111;-52
2022/07/23 10:57:50;;;;;;;4.93;2.38;;;24.50;50.70;;;;;;5014187;28;20042;-51
2022/07/23 11:00:24;;;;;;;3.00;1.75;;;24.70;51.80;;;;;;5010898;28;20464;-50
2022/07/23 11:02:53;;;;;;;5.45;2.65;;;24.70;50.60;;;;;;5006004;28;20089;-51
2022/07/23 11:05:24;;;;;;;3.15;2.20;;;24.80;50.40;;;;;;5002333;28;20042;-49
2022/07/23 11:08:12;;;;;;;2.33;2.13;;;24.80;50.40;;;;;;5017169;28;20034;-51
2022/07/23 11:10:39;;;;;;;2.60;2.00;;;24.90;49.70;;;;;;5007149;28;20185;-52
2022/07/23 11:13:21;;;;;;;4.10;2.30;;;24.90;50.30;;;;;;5005022;28;20217;-50
2022/07/23 11:16:01;;;;;;;1.80;1.70;;;24.90;49.30;;;;;;5008346;28;20043;-51
2022/07/23 11:18:43;;;;;;;2.20;1.80;;;25.00;49.70;;;;;;5009818;28;20452;-48
2022/07/23 11:21:41;;;;;;;2.37;1.83;;;25.10;50.70;;;;;;5003783;28;20050;-48
2022/07/23 11:24:13;;;;;;;2.00;1.88;;;25.10;50.40;;;;;;4992410;28;20321;-47
2022/07/23 11:26:41;;;;;;;3.33;2.13;;;25.20;49.90;;;;;;5015446;28;20429;-48
2022/07/23 11:29:26;;;;;;;1.77;1.65;;;25.20;48.90;;;;;;5013832;28;20048;-46
2022/07/23 11:31:57;;;;;;;3.85;1.70;;;25.30;48.10;;;;;;5010763;28;20049;-50
2022/07/23 11:34:31;;;;;;;1.50;1.40;;;25.40;48.10;;;;;;5012257;28;20037;-48
2022/07/23 11:36:59;;;;;;;1.90;1.50;;;25.50;48.00;;;;;;5021337;28;20042;-48
2022/07/23 11:39:28;;;;;;;2.53;1.90;;;25.50;48.00;;;;;;5023503;28;20038;-49
2022/07/23 11:41:56;;;;;;;2.15;1.95;;;25.60;47.40;;;;;;5013117;28;20053;-49
2022/07/23 11:44:30;;;;;;;2.22;2.03;;;25.60;47.30;;;;;;5016249;28;20099;-51
2022/07/23 11:47:03;;;;;;;1.85;1.70;;;25.70;47.90;;;;;;5020535;28;20073;-48
2022/07/23 11:49:31;;;;;;;2.03;1.70;;;25.80;47.30;;;;;;5024684;28;20451;-49
2022/07/23 11:52:14;;;;;;;2.40;1.70;;;25.90;47.90;;;;;;5011675;28;20038;-48
2022/07/23 11:55:08;;;;;;;3.30;2.40;;;25.90;46.80;;;;;;5014455;28;20041;-47
2022/07/23 11:57:39;;;;;;;1.63;1.52;;;26.00;47.10;;;;;;5007805;28;20085;-48
2022/07/23 12:00:10;;;;;;;2.03;1.80;;;26.10;46.90;;;;;;5001743;28;20034;-47
2022/07/23 12:02:46;;;;;;;1.60;1.50;;;26.10;46.50;;;;;;5006397;28;20072;-51
2022/07/23 12:05:22;;;;;;;4.90;2.75;;;26.20;45.90;;;;;;5007501;28;20049;-48
2022/07/23 12:07:51;;;;;;;2.83;2.13;;;26.30;46.70;;;;;;5016496;28;20449;-49
2022/07/23 12:10:27;;;;;;;2.13;1.92;;;26.40;46.90;;;;;;5030748;28;20490;-47
2022/07/23 12:13:06;;;;;;;2.17;1.92;;;26.40;46.60;;;;;;5010018;28;20041;-49
2022/07/23 12:15:37;;;;;;;1.98;1.88;;;26.50;46.20;;;;;;5014176;28;20045;-47
2022/07/23 12:18:07;;;;;;;2.03;1.90;;;26.50;45.90;;;;;;5014206;28;20050;-48
2022/07/23 12:20:40;;;;;;;2.50;1.77;;;26.60;46.30;;;;;;5007902;28;20033;-49
2022/07/23 12:23:08;;;;;;;1.95;1.85;;;26.70;45.50;;;;;;5011782;28;20495;-48
2022/07/23 12:25:38;;;;;;;2.65;1.80;;;26.90;45.40;;;;;;5013060;28;20068;-50
2022/07/23 12:28:10;;;;;;;1.70;1.60;;;26.90;45.00;;;;;;4992004;28;20466;-48
2022/07/23 12:30:42;;;;;;;1.73;1.63;;;27.00;44.80;;;;;;5018230;28;20080;-49
2022/07/23 12:33:13;;;;;;;2.38;1.77;;;27.10;44.40;;;;;;5023126;28;20076;-50
2022/07/23 12:35:44;;;;;;;1.70;1.60;;;27.20;44.50;;;;;;5007824;28;20104;-50
2022/07/23 12:38:14;;;;;;;2.70;1.70;;;27.30;43.80;;;;;;5004713;28;20456;-51
2022/07/23 12:40:57;;;;;;;3.33;1.92;;;27.40;44.20;;;;;;5012390;28;20124;-51
2022/07/23 12:43:36;;;;;;;4.30;1.80;;;27.50;43.40;;;;;;5007462;28;20457;-49
2022/07/23 12:46:14;;;;;;;2.50;2.20;;;27.60;43.50;;;;;;5006997;28;20456;-48
2022/07/23 12:48:50;;;;;;;2.78;2.00;;;27.60;42.50;;;;;;5011558;28;20269;-51
2022/07/23 12:51:31;;;;;;;2.10;1.40;;;27.70;42.20;;;;;;5008319;28;20155;-48
2022/07/23 12:54:09;;;;;;;1.92;1.77;;;27.80;42.70;;;;;;5008832;28;20048;-48
2022/07/23 12:56:38;;;;;;;2.47;2.03;;;28.00;42.30;;;;;;5005053;28;20508;-52
2022/07/23 12:59:10;;;;;;;1.95;1.85;;;28.00;41.80;;;;;;5023447;28;20103;-49
2022/07/23 13:01:43;;;;;;;2.03;1.83;;;28.10;41.60;;;;;;5014292;28;20120;-50
2022/07/23 13:04:20;;;;;;;1.98;1.73;;;28.20;41.30;;;;;;5010739;28;20046;-49
2022/07/23 13:06:54;;;;;;;1.70;1.60;;;28.40;41.50;;;;;;4999272;28;20042;-49
2022/07/23 13:09:23;;;;;;;1.95;1.63;;;28.40;41.20;;;;;;5011452;28;20104;-49
2022/07/23 13:11:53;;;;;;;2.90;1.88;;;28.50;41.10;;;;;;5004461;28;20038;-48
2022/07/23 13:14:24;;;;;;;2.42;1.98;;;28.70;40.80;;;;;;5000006;28;20178;-49
2022/07/23 13:16:53;;;;;;;2.78;1.52;;;28.80;41.60;;;;;;5001884;28;20037;-49